Time;durP1;ratioP1;P1;durP2;ratioP2;P2;SDS_P1;SDS_P2;PMS_P1;PMS_P2;Temp;Humidity;BMP_temperature;BMP_pressure;BME280_temperature;BME280_humidity;BME280_pressure;Samples;Min_cycle;Max_cycle;Signal;HPM_P1;HPM_P2
2024/02/25 00:00:04;;;;;;;39.60;23.87;;;;;;;;;;748407;183;922274;-63
2024/02/25 00:02:30;;;;;;;43.20;25.92;;;;;;;;;;749802;184;916835;-63
2024/02/25 00:04:55;;;;;;;35.27;21.90;;;;;;;;;;752515;184;919261;-63
2024/02/25 00:07:21;;;;;;;34.67;22.10;;;;;;;;;;752948;185;817393;-64
2024/02/25 00:09:47;;;;;;;35.30;21.30;;;;;;;;;;750903;185;813606;-64
2024/02/25 00:12:13;;;;;;;33.80;20.00;;;;;;;;;;754821;185;876405;-63
2024/02/25 00:14:39;;;;;;;44.33;24.10;;;;;;;;;;753323;185;833113;-63
2024/02/25 00:17:04;;;;;;;36.37;20.47;;;;;;;;;;748492;185;917798;-65
2024/02/25 00:19:30;;;;;;;35.10;21.87;;;;;;;;;;756992;185;919445;-63
2024/02/25 00:21:56;;;;;;;29.87;19.50;;;;;;;;;;747045;185;895832;-63
2024/02/25 00:24:22;;;;;;;30.77;18.07;;;;;;;;;;747830;184;1020857;-63
2024/02/25 00:26:48;;;;;;;38.33;21.67;;;;;;;;;;749079;185;899884;-65
2024/02/25 00:29:15;;;;;;;25.80;18.63;;;;;;;;;;751173;185;914566;-65
2024/02/25 00:31:39;;;;;;;36.47;22.53;;;;;;;;;;749577;184;851005;-63
2024/02/25 00:34:05;;;;;;;34.33;20.30;;;;;;;;;;751011;185;918252;-63
2024/02/25 00:36:32;;;;;;;25.50;17.50;;;;;;;;;;754519;185;866502;-62
2024/02/25 00:38:57;;;;;;;28.60;18.00;;;;;;;;;;754878;185;917507;-63
2024/02/25 00:41:23;;;;;;;28.77;18.57;;;;;;;;;;753409;185;917357;-64
2024/02/25 00:43:49;;;;;;;25.37;16.90;;;;;;;;;;758077;185;884419;-63
2024/02/25 00:46:15;;;;;;;23.13;16.53;;;;;;;;;;747895;185;896279;-64
2024/02/25 00:48:40;;;;;;;27.23;19.20;;;;;;;;;;748762;185;921128;-62
2024/02/25 00:51:06;;;;;;;30.70;20.97;;;;;;;;;;751381;185;917719;-63
2024/02/25 00:53:33;;;;;;;25.87;16.70;;;;;;;;;;754648;184;918362;-62
2024/02/25 00:55:58;;;;;;;24.93;16.50;;;;;;;;;;746934;185;929429;-63
2024/02/25 00:58:24;;;;;;;23.63;15.50;;;;;;;;;;750761;185;918286;-63
2024/02/25 01:00:50;;;;;;;18.40;14.30;;;;;;;;;;755666;185;923507;-64
2024/02/25 01:03:16;;;;;;;17.03;11.87;;;;;;;;;;748645;185;918883;-62
2024/02/25 01:05:41;;;;;;;19.97;13.87;;;;;;;;;;752088;184;918522;-64
2024/02/25 01:08:08;;;;;;;20.53;13.27;;;;;;;;;;757029;184;918843;-63
2024/02/25 01:10:33;;;;;;;20.60;13.70;;;;;;;;;;749006;184;920218;-62
2024/02/25 01:12:59;;;;;;;22.08;13.75;;;;;;;;;;751455;184;1021455;-64
2024/02/25 01:15:25;;;;;;;19.85;13.13;;;;;;;;;;748323;185;918173;-64
2024/02/25 01:17:51;;;;;;;20.43;14.43;;;;;;;;;;759419;181;739072;-63
2024/02/25 01:20:17;;;;;;;20.60;13.27;;;;;;;;;;749764;185;917256;-65
2024/02/25 01:22:42;;;;;;;31.70;17.40;;;;;;;;;;751585;185;1076249;-62
2024/02/25 01:25:08;;;;;;;23.20;14.77;;;;;;;;;;758292;185;872414;-62
2024/02/25 01:27:34;;;;;;;21.53;14.87;;;;;;;;;;752140;185;918110;-63
2024/02/25 01:30:00;;;;;;;20.00;13.40;;;;;;;;;;751691;185;838473;-62
2024/02/25 01:32:26;;;;;;;21.47;13.87;;;;;;;;;;757905;184;918080;-65
2024/02/25 01:34:52;;;;;;;20.27;14.40;;;;;;;;;;751404;185;893977;-64
2024/02/25 01:37:19;;;;;;;22.83;14.53;;;;;;;;;;750319;185;918790;-63
2024/02/25 01:39:44;;;;;;;20.40;12.43;;;;;;;;;;753132;185;900705;-63
2024/02/25 01:42:09;;;;;;;22.23;14.63;;;;;;;;;;749760;184;872494;-64
2024/02/25 01:44:46;;;;;;;52.30;24.07;;;;;;;;;;746718;185;918399;-65
2024/02/25 01:47:12;;;;;;;57.67;27.60;;;;;;;;;;751185;185;918776;-63
2024/02/25 01:49:38;;;;;;;26.85;16.90;;;;;;;;;;755268;185;867087;-63
2024/02/25 01:52:04;;;;;;;35.47;16.70;;;;;;;;;;750816;183;816607;-63
2024/02/25 01:54:30;;;;;;;32.80;19.10;;;;;;;;;;753900;184;819912;-63
2024/02/25 01:56:56;;;;;;;34.07;19.03;;;;;;;;;;750242;185;918213;-63
2024/02/25 01:59:21;;;;;;;27.80;17.20;;;;;;;;;;753850;185;816631;-63
2024/02/25 02:01:47;;;;;;;28.57;16.80;;;;;;;;;;748526;185;842590;-63
2024/02/25 02:04:14;;;;;;;21.70;14.83;;;;;;;;;;747487;185;917275;-63
2024/02/25 02:06:39;;;;;;;28.02;16.70;;;;;;;;;;752497;185;915975;-63
2024/02/25 02:09:05;;;;;;;35.87;18.37;;;;;;;;;;748391;184;869115;-63
2024/02/25 02:11:31;;;;;;;32.17;15.97;;;;;;;;;;746874;185;919264;-63
2024/02/25 02:13:56;;;;;;;25.77;14.50;;;;;;;;;;752559;185;912643;-63
2024/02/25 02:16:24;;;;;;;35.00;16.63;;;;;;;;;;750017;185;915527;-64
2024/02/25 02:18:48;;;;;;;35.10;19.70;;;;;;;;;;751575;183;887745;-63
2024/02/25 02:21:16;;;;;;;31.50;18.77;;;;;;;;;;750372;185;929703;-63
2024/02/25 02:23:42;;;;;;;33.73;18.30;;;;;;;;;;753769;184;816638;-63
2024/02/25 02:26:08;;;;;;;31.57;15.77;;;;;;;;;;751928;185;974271;-64
2024/02/25 02:28:33;;;;;;;22.33;13.38;;;;;;;;;;751457;185;919360;-64
2024/02/25 02:30:59;;;;;;;22.57;12.00;;;;;;;;;;756023;185;916846;-63
2024/02/25 02:33:25;;;;;;;19.27;11.43;;;;;;;;;;750797;184;919423;-63
2024/02/25 02:35:51;;;;;;;21.20;12.20;;;;;;;;;;750615;184;918015;-63
2024/02/25 02:38:17;;;;;;;17.57;11.77;;;;;;;;;;755136;184;919376;-63
2024/02/25 02:40:43;;;;;;;22.27;12.37;;;;;;;;;;749126;185;916520;-63
2024/02/25 02:43:08;;;;;;;17.85;11.32;;;;;;;;;;748548;185;891376;-63
2024/02/25 02:45:36;;;;;;;17.90;11.50;;;;;;;;;;749466;185;918086;-63
2024/02/25 02:48:00;;;;;;;23.93;15.17;;;;;;;;;;753879;185;919670;-65
2024/02/25 02:50:26;;;;;;;24.80;14.27;;;;;;;;;;747759;185;920256;-63
2024/02/25 02:52:52;;;;;;;18.63;11.47;;;;;;;;;;749649;185;898387;-63
2024/02/25 02:55:18;;;;;;;19.37;11.85;;;;;;;;;;751693;184;817376;-63
2024/02/25 02:57:43;;;;;;;19.77;11.27;;;;;;;;;;749229;184;818059;-63
2024/02/25 03:00:11;;;;;;;23.83;11.87;;;;;;;;;;747184;185;913954;-63
2024/02/25 03:02:36;;;;;;;19.13;12.10;;;;;;;;;;754371;185;919402;-63
2024/02/25 03:05:01;;;;;;;21.77;12.15;;;;;;;;;;750221;185;918418;-63
2024/02/25 03:07:27;;;;;;;22.27;14.27;;;;;;;;;;753229;184;1022542;-62
2024/02/25 03:09:53;;;;;;;24.60;14.00;;;;;;;;;;749946;185;920867;-63
2024/02/25 03:12:19;;;;;;;19.55;11.75;;;;;;;;;;758060;184;917165;-63
2024/02/25 03:14:45;;;;;;;25.03;12.70;;;;;;;;;;749683;185;816687;-62
2024/02/25 03:17:11;;;;;;;20.33;11.73;;;;;;;;;;750486;184;901538;-63
2024/02/25 03:19:37;;;;;;;21.77;12.73;;;;;;;;;;754006;185;915219;-63
2024/02/25 03:22:03;;;;;;;19.60;12.00;;;;;;;;;;746833;185;911356;-64
2024/02/25 03:24:28;;;;;;;20.07;12.10;;;;;;;;;;748221;185;912430;-64
2024/02/25 03:26:54;;;;;;;18.87;12.43;;;;;;;;;;757540;185;818004;-63
2024/02/25 03:29:20;;;;;;;17.10;10.13;;;;;;;;;;753446;183;891120;-63
2024/02/25 03:31:47;;;;;;;19.77;12.17;;;;;;;;;;753499;185;918545;-62
2024/02/25 03:34:12;;;;;;;15.93;10.30;;;;;;;;;;752323;184;852030;-62
2024/02/25 03:36:38;;;;;;;23.43;10.70;;;;;;;;;;753036;185;918180;-63
2024/02/25 03:39:03;;;;;;;20.73;12.30;;;;;;;;;;747897;185;931422;-62
2024/02/25 03:41:29;;;;;;;15.70;9.90;;;;;;;;;;747465;185;918760;-62
2024/02/25 03:43:55;;;;;;;16.07;9.60;;;;;;;;;;753385;185;852876;-62
2024/02/25 03:46:21;;;;;;;18.53;11.73;;;;;;;;;;748302;185;919466;-62
2024/02/25 03:48:47;;;;;;;16.73;10.50;;;;;;;;;;747654;185;917583;-63
2024/02/25 03:51:13;;;;;;;18.70;10.83;;;;;;;;;;754106;185;918768;-62
2024/02/25 03:53:38;;;;;;;42.20;20.97;;;;;;;;;;749823;184;923219;-62
2024/02/25 03:56:04;;;;;;;41.72;19.92;;;;;;;;;;751293;184;917047;-63
2024/02/25 03:58:30;;;;;;;23.90;13.07;;;;;;;;;;756682;184;914393;-62
2024/02/25 04:00:56;;;;;;;29.23;14.00;;;;;;;;;;749391;185;921063;-60
2024/02/25 04:03:22;;;;;;;25.47;12.20;;;;;;;;;;749309;184;919515;-62
2024/02/25 04:05:48;;;;;;;24.47;13.37;;;;;;;;;;751696;184;874257;-62
2024/02/25 04:08:14;;;;;;;26.00;14.10;;;;;;;;;;754682;185;920697;-62
2024/02/25 04:10:39;;;;;;;37.20;15.90;;;;;;;;;;748120;185;921129;-62
2024/02/25 04:13:05;;;;;;;50.60;22.80;;;;;;;;;;753093;185;933923;-61
2024/02/25 04:15:31;;;;;;;45.30;20.00;;;;;;;;;;757328;183;818968;-63
2024/02/25 04:17:57;;;;;;;44.73;16.10;;;;;;;;;;749528;185;920860;-62
2024/02/25 04:20:24;;;;;;;23.30;13.13;;;;;;;;;;748585;185;919096;-61
2024/02/25 04:22:49;;;;;;;14.17;6.77;;;;;;;;;;753825;185;919852;-62
2024/02/25 04:25:15;;;;;;;13.00;7.23;;;;;;;;;;749417;185;919776;-62
2024/02/25 04:27:40;;;;;;;14.90;8.93;;;;;;;;;;749402;184;909086;-61
2024/02/25 04:30:07;;;;;;;13.60;7.77;;;;;;;;;;750094;185;806712;-62
2024/02/25 04:32:33;;;;;;;15.93;8.50;;;;;;;;;;756906;184;813829;-62
2024/02/25 04:34:58;;;;;;;15.03;4.67;;;;;;;;;;748815;185;858767;-63
2024/02/25 04:37:26;;;;;;;8.43;4.83;;;;;;;;;;749375;185;887992;-62
2024/02/25 04:39:50;;;;;;;7.47;3.90;;;;;;;;;;757337;183;918806;-61
2024/02/25 04:42:16;;;;;;;6.73;3.20;;;;;;;;;;755015;184;918710;-63
2024/02/25 04:44:42;;;;;;;9.47;4.10;;;;;;;;;;753893;185;816723;-62
2024/02/25 04:47:07;;;;;;;12.70;3.53;;;;;;;;;;757050;185;880090;-61
2024/02/25 04:49:33;;;;;;;8.50;4.20;;;;;;;;;;751405;185;909570;-61
2024/02/25 04:51:59;;;;;;;9.50;4.20;;;;;;;;;;749076;185;924076;-62
2024/02/25 04:54:25;;;;;;;8.20;3.50;;;;;;;;;;748646;185;975511;-61
2024/02/25 04:56:54;;;;;;;11.23;4.03;;;;;;;;;;751321;187;919080;-63
2024/02/25 04:59:17;;;;;;;5.93;3.40;;;;;;;;;;746404;184;918705;-63
2024/02/25 05:01:43;;;;;;;11.10;4.40;;;;;;;;;;742159;184;876846;-64
2024/02/25 05:04:09;;;;;;;9.60;3.10;;;;;;;;;;752376;185;816824;-62
2024/02/25 05:06:35;;;;;;;6.97;3.60;;;;;;;;;;749054;185;919332;-62
2024/02/25 05:09:01;;;;;;;7.50;3.33;;;;;;;;;;748718;184;918792;-62
2024/02/25 05:11:26;;;;;;;7.10;3.10;;;;;;;;;;753017;185;893211;-63
2024/02/25 05:13:54;;;;;;;6.80;3.83;;;;;;;;;;750036;184;892049;-61
2024/02/25 05:16:18;;;;;;;6.60;3.27;;;;;;;;;;748233;184;919584;-63
2024/02/25 05:18:45;;;;;;;6.22;3.00;;;;;;;;;;751758;185;917489;-62
2024/02/25 05:21:10;;;;;;;6.40;3.80;;;;;;;;;;752409;185;919842;-63
2024/02/25 05:23:36;;;;;;;11.50;4.20;;;;;;;;;;750821;185;918736;-63
2024/02/25 05:26:02;;;;;;;4.93;3.30;;;;;;;;;;751433;185;823002;-62
2024/02/25 05:28:28;;;;;;;5.80;2.97;;;;;;;;;;754416;185;838811;-63
2024/02/25 05:30:54;;;;;;;6.20;3.30;;;;;;;;;;749100;185;919308;-62
2024/02/25 05:33:20;;;;;;;8.70;2.93;;;;;;;;;;749026;185;915910;-63
2024/02/25 05:35:46;;;;;;;6.90;3.60;;;;;;;;;;752718;185;919986;-62
2024/02/25 05:38:11;;;;;;;8.30;4.30;;;;;;;;;;753187;184;915005;-61
2024/02/25 05:40:40;;;;;;;7.10;3.70;;;;;;;;;;748295;184;817366;-62
2024/02/25 05:43:04;;;;;;;4.75;3.15;;;;;;;;;;752332;185;856690;-61
2024/02/25 05:45:30;;;;;;;8.80;3.63;;;;;;;;;;754971;185;869768;-62
2024/02/25 05:47:56;;;;;;;7.90;2.97;;;;;;;;;;749624;185;755370;-62
2024/02/25 05:50:21;;;;;;;6.03;3.27;;;;;;;;;;748497;185;921295;-63
2024/02/25 05:52:47;;;;;;;5.60;3.00;;;;;;;;;;756309;184;816826;-61
2024/02/25 05:55:13;;;;;;;5.70;3.60;;;;;;;;;;750473;183;920992;-63
2024/02/25 05:57:39;;;;;;;7.30;3.65;;;;;;;;;;751870;185;861690;-64
2024/02/25 06:00:05;;;;;;;9.43;3.80;;;;;;;;;;754945;185;917339;-61
2024/02/25 06:02:31;;;;;;;6.37;3.70;;;;;;;;;;752723;185;815544;-63
2024/02/25 06:04:58;;;;;;;6.87;4.10;;;;;;;;;;751362;185;841977;-61
2024/02/25 06:07:23;;;;;;;9.83;4.40;;;;;;;;;;760632;184;647049;-63
2024/02/25 06:09:49;;;;;;;7.20;3.40;;;;;;;;;;756879;184;625830;-63
2024/02/25 06:12:14;;;;;;;12.63;3.80;;;;;;;;;;754988;184;641238;-63
2024/02/25 06:14:40;;;;;;;6.73;3.33;;;;;;;;;;752255;185;814759;-63
2024/02/25 06:17:06;;;;;;;6.27;3.23;;;;;;;;;;755669;185;918912;-63
2024/02/25 06:19:35;;;;;;;7.05;3.30;;;;;;;;;;754415;185;878258;-62
2024/02/25 06:21:58;;;;;;;6.10;3.70;;;;;;;;;;752868;185;636733;-63
2024/02/25 06:24:24;;;;;;;6.37;3.03;;;;;;;;;;759920;184;626345;-61
2024/02/25 06:26:49;;;;;;;8.17;4.10;;;;;;;;;;754516;185;918586;-63
2024/02/25 06:29:16;;;;;;;7.30;4.43;;;;;;;;;;753495;185;619361;-62
2024/02/25 06:31:43;;;;;;;5.30;3.95;;;;;;;;;;753989;184;852237;-63
2024/02/25 06:34:07;;;;;;;13.13;5.53;;;;;;;;;;751433;185;715263;-64
2024/02/25 06:36:33;;;;;;;9.20;4.70;;;;;;;;;;747859;185;913198;-62
2024/02/25 06:38:59;;;;;;;5.43;3.43;;;;;;;;;;744415;185;818115;-64
2024/02/25 06:41:25;;;;;;;7.87;3.60;;;;;;;;;;751205;184;816025;-63
2024/02/25 06:43:52;;;;;;;11.10;5.70;;;;;;;;;;750820;184;866697;-63
2024/02/25 06:46:17;;;;;;;6.47;3.50;;;;;;;;;;751200;185;919566;-64
2024/02/25 06:48:43;;;;;;;7.97;3.35;;;;;;;;;;754008;185;813238;-64
2024/02/25 06:51:09;;;;;;;10.40;4.77;;;;;;;;;;747268;184;820314;-63
2024/02/25 06:53:35;;;;;;;8.67;3.93;;;;;;;;;;746792;185;918410;-65
2024/02/25 06:56:00;;;;;;;8.93;4.40;;;;;;;;;;752756;185;816700;-64
2024/02/25 06:58:26;;;;;;;19.93;9.33;;;;;;;;;;753629;184;919393;-65
2024/02/25 07:00:52;;;;;;;62.53;24.70;;;;;;;;;;746409;185;917046;-63
2024/02/25 07:03:18;;;;;;;10.13;6.67;;;;;;;;;;746625;184;920030;-64
2024/02/25 07:05:44;;;;;;;19.50;8.83;;;;;;;;;;756178;185;814855;-64
2024/02/25 07:08:09;;;;;;;8.80;5.17;;;;;;;;;;753229;185;877392;-64
2024/02/25 07:10:35;;;;;;;10.67;4.13;;;;;;;;;;747414;185;916069;-64
2024/02/25 07:13:01;;;;;;;5.40;3.60;;;;;;;;;;756566;185;813117;-63
2024/02/25 07:15:27;;;;;;;6.53;3.70;;;;;;;;;;750411;185;919412;-63
2024/02/25 07:17:53;;;;;;;7.50;4.10;;;;;;;;;;751371;185;918745;-65
2024/02/25 07:20:19;;;;;;;9.23;3.57;;;;;;;;;;755556;184;920185;-63
2024/02/25 07:22:44;;;;;;;7.93;4.10;;;;;;;;;;749637;185;869271;-64
2024/02/25 07:25:10;;;;;;;8.73;4.37;;;;;;;;;;749882;185;939493;-64
2024/02/25 07:27:37;;;;;;;7.10;4.10;;;;;;;;;;753202;185;932350;-64
2024/02/25 07:30:03;;;;;;;7.33;3.90;;;;;;;;;;750051;185;919577;-63
2024/02/25 07:32:29;;;;;;;8.10;4.53;;;;;;;;;;743909;185;1021716;-65
2024/02/25 07:34:55;;;;;;;7.72;3.22;;;;;;;;;;755803;184;619196;-65
2024/02/25 07:37:21;;;;;;;9.40;5.13;;;;;;;;;;758346;185;633922;-66
2024/02/25 07:39:46;;;;;;;16.10;7.90;;;;;;;;;;754365;185;622192;-65
2024/02/25 07:42:12;;;;;;;9.73;5.10;;;;;;;;;;748188;185;853341;-65
2024/02/25 07:44:38;;;;;;;13.60;8.80;;;;;;;;;;755107;184;1052633;-65
2024/02/25 07:47:04;;;;;;;12.80;7.70;;;;;;;;;;752411;185;817072;-64
2024/02/25 07:49:30;;;;;;;5.43;3.17;;;;;;;;;;754067;185;642872;-67
2024/02/25 07:51:56;;;;;;;11.13;3.63;;;;;;;;;;758802;184;629786;-64
2024/02/25 07:54:21;;;;;;;10.20;4.63;;;;;;;;;;754457;185;630990;-66
2024/02/25 07:56:47;;;;;;;12.23;5.27;;;;;;;;;;749845;185;681506;-68
2024/02/25 07:59:13;;;;;;;6.80;4.50;;;;;;;;;;754813;184;633700;-66
2024/02/25 08:01:39;;;;;;;18.33;4.18;;;;;;;;;;756465;185;867563;-63
2024/02/25 08:04:05;;;;;;;8.30;3.50;;;;;;;;;;746795;185;918907;-66
2024/02/25 08:06:32;;;;;;;7.33;4.00;;;;;;;;;;750678;184;919183;-62
2024/02/25 08:08:56;;;;;;;7.47;3.00;;;;;;;;;;754415;184;868509;-62
2024/02/25 08:11:22;;;;;;;6.23;3.00;;;;;;;;;;750397;185;854347;-63
2024/02/25 08:13:48;;;;;;;5.20;2.73;;;;;;;;;;751879;184;928802;-65
2024/02/25 08:16:15;;;;;;;9.57;2.97;;;;;;;;;;755925;183;919323;-65
2024/02/25 08:18:45;;;;;;;4.80;2.97;;;;;;;;;;754375;185;915069;-65
2024/02/25 08:21:11;;;;;;;4.90;2.20;;;;;;;;;;750984;185;915947;-62
2024/02/25 08:23:36;;;;;;;4.63;2.20;;;;;;;;;;749448;185;862054;-65
2024/02/25 08:26:03;;;;;;;4.97;2.00;;;;;;;;;;757472;185;721217;-66
2024/02/25 08:28:28;;;;;;;5.47;2.20;;;;;;;;;;748741;183;914822;-66
2024/02/25 08:30:53;;;;;;;13.93;3.10;;;;;;;;;;748787;185;916934;-66
2024/02/25 08:33:19;;;;;;;4.03;2.10;;;;;;;;;;755061;185;920433;-63
2024/02/25 08:35:45;;;;;;;6.67;2.30;;;;;;;;;;752621;184;915739;-63
2024/02/25 08:38:11;;;;;;;5.00;2.17;;;;;;;;;;751545;184;951758;-63
2024/02/25 08:40:37;;;;;;;6.23;1.90;;;;;;;;;;751303;185;884733;-63
2024/02/25 08:43:03;;;;;;;6.57;2.03;;;;;;;;;;749445;183;863135;-62
2024/02/25 08:45:28;;;;;;;3.93;2.27;;;;;;;;;;749840;185;917958;-61
2024/02/25 08:47:54;;;;;;;4.67;2.03;;;;;;;;;;749098;185;916960;-66
2024/02/25 08:50:20;;;;;;;7.20;2.77;;;;;;;;;;755625;185;921863;-67
2024/02/25 08:52:46;;;;;;;5.43;2.57;;;;;;;;;;749112;185;858597;-67
2024/02/25 08:55:12;;;;;;;6.70;2.25;;;;;;;;;;746888;185;936596;-63
2024/02/25 08:57:38;;;;;;;4.33;2.13;;;;;;;;;;754976;185;818322;-69
2024/02/25 09:00:07;;;;;;;5.93;2.20;;;;;;;;;;750890;184;915664;-67
2024/02/25 09:02:30;;;;;;;3.80;2.20;;;;;;;;;;748973;185;917529;-64
2024/02/25 09:04:56;;;;;;;4.63;1.93;;;;;;;;;;752862;185;816557;-63
2024/02/25 09:07:24;;;;;;;4.10;2.03;;;;;;;;;;749823;185;882414;-62
2024/02/25 09:09:47;;;;;;;12.93;3.37;;;;;;;;;;747949;185;862755;-63
2024/02/25 09:12:13;;;;;;;6.83;2.40;;;;;;;;;;748401;185;917533;-67
2024/02/25 09:14:40;;;;;;;3.67;2.27;;;;;;;;;;753652;184;816735;-67
2024/02/25 09:17:06;;;;;;;5.40;2.37;;;;;;;;;;752280;184;896542;-68
2024/02/25 09:19:32;;;;;;;4.83;2.00;;;;;;;;;;750320;185;918827;-64
2024/02/25 09:21:58;;;;;;;4.10;2.10;;;;;;;;;;754823;184;864248;-62
2024/02/25 09:24:23;;;;;;;6.63;2.00;;;;;;;;;;752225;185;816246;-66
2024/02/25 09:26:49;;;;;;;4.10;2.00;;;;;;;;;;747909;184;919638;-66
2024/02/25 09:29:15;;;;;;;6.40;1.87;;;;;;;;;;755756;184;917396;-64
2024/02/25 09:31:41;;;;;;;5.20;2.20;;;;;;;;;;752412;185;628029;-67
2024/02/25 09:34:08;;;;;;;5.67;1.80;;;;;;;;;;751150;185;919926;-66
2024/02/25 09:36:33;;;;;;;3.87;2.00;;;;;;;;;;748026;185;1090388;-67
2024/02/25 09:38:59;;;;;;;4.37;2.13;;;;;;;;;;746718;188;899006;-64
2024/02/25 09:41:27;;;;;;;6.90;2.20;;;;;;;;;;749242;185;1007116;-63
2024/02/25 09:43:52;;;;;;;3.27;1.93;;;;;;;;;;750945;185;636751;-63
2024/02/25 09:46:18;;;;;;;6.47;2.20;;;;;;;;;;751858;185;978451;-62
2024/02/25 09:48:44;;;;;;;3.73;1.93;;;;;;;;;;754698;185;912296;-68
2024/02/25 09:51:10;;;;;;;3.17;1.70;;;;;;;;;;750292;184;909570;-67
2024/02/25 09:53:36;;;;;;;6.00;3.00;;;;;;;;;;747927;184;969616;-68
2024/02/25 09:56:02;;;;;;;5.90;3.03;;;;;;;;;;754485;183;619218;-62
2024/02/25 09:58:27;;;;;;;4.43;2.20;;;;;;;;;;752893;185;632800;-69
2024/02/25 10:00:53;;;;;;;6.90;2.43;;;;;;;;;;752983;185;643687;-64
2024/02/25 10:03:19;;;;;;;4.50;1.73;;;;;;;;;;755616;185;760964;-68
2024/02/25 10:05:45;;;;;;;5.13;2.30;;;;;;;;;;753507;184;642766;-68
2024/02/25 10:08:11;;;;;;;4.70;2.37;;;;;;;;;;747219;185;919832;-63
2024/02/25 10:10:37;;;;;;;3.83;2.27;;;;;;;;;;755663;184;919276;-68
2024/02/25 10:13:03;;;;;;;9.23;2.37;;;;;;;;;;751215;185;919780;-68
2024/02/25 10:15:29;;;;;;;5.50;2.20;;;;;;;;;;750498;184;901468;-63
2024/02/25 10:17:55;;;;;;;4.67;1.87;;;;;;;;;;757713;184;859847;-64
2024/02/25 10:20:21;;;;;;;7.83;2.40;;;;;;;;;;752622;185;629938;-63
2024/02/25 10:22:47;;;;;;;4.80;2.27;;;;;;;;;;752638;184;628322;-63
2024/02/25 10:25:13;;;;;;;5.03;2.40;;;;;;;;;;752977;185;815313;-67
2024/02/25 10:27:38;;;;;;;4.83;2.13;;;;;;;;;;749669;187;919324;-64
2024/02/25 10:30:06;;;;;;;5.53;2.30;;;;;;;;;;748889;185;919483;-64
2024/02/25 10:32:31;;;;;;;3.80;2.17;;;;;;;;;;749171;185;919305;-63
2024/02/25 10:34:57;;;;;;;5.73;2.00;;;;;;;;;;753725;185;919874;-67
2024/02/25 10:37:22;;;;;;;4.33;2.07;;;;;;;;;;753090;185;916770;-63
2024/02/25 10:39:50;;;;;;;5.37;1.90;;;;;;;;;;751649;184;883978;-64
2024/02/25 10:42:16;;;;;;;6.20;2.23;;;;;;;;;;756021;185;861423;-63
2024/02/25 10:44:42;;;;;;;3.83;1.97;;;;;;;;;;752809;185;850641;-68
2024/02/25 10:47:08;;;;;;;6.25;2.28;;;;;;;;;;748401;185;1023857;-69
2024/02/25 10:49:33;;;;;;;4.63;2.07;;;;;;;;;;749521;185;816666;-68
2024/02/25 10:51:59;;;;;;;5.10;1.77;;;;;;;;;;746419;186;919111;-68
2024/02/25 10:54:25;;;;;;;3.55;2.15;;;;;;;;;;748111;185;918944;-68
2024/02/25 10:56:51;;;;;;;4.87;1.58;;;;;;;;;;749291;185;1020667;-63
2024/02/25 10:59:17;;;;;;;2.80;1.50;;;;;;;;;;757606;185;632475;-63
2024/02/25 11:01:43;;;;;;;3.87;1.90;;;;;;;;;;752336;185;918089;-63
2024/02/25 11:04:09;;;;;;;4.50;2.00;;;;;;;;;;753088;182;919087;-64
2024/02/25 11:06:36;;;;;;;3.63;1.70;;;;;;;;;;752709;185;919525;-63
2024/02/25 11:09:09;;;;;;;4.13;1.90;;;;;;;;;;748882;185;884142;-64
2024/02/25 11:11:34;;;;;;;7.83;2.37;;;;;;;;;;753019;184;920217;-64
2024/02/25 11:14:00;;;;;;;3.20;1.50;;;;;;;;;;751099;185;816524;-67
2024/02/25 11:16:30;;;;;;;5.90;2.20;;;;;;;;;;757013;185;696512;-70
2024/02/25 11:18:56;;;;;;;5.20;1.87;;;;;;;;;;751187;185;1019286;-64
2024/02/25 11:21:21;;;;;;;4.65;1.90;;;;;;;;;;749742;185;918165;-63
2024/02/25 11:23:47;;;;;;;4.00;1.73;;;;;;;;;;747793;185;914923;-68
2024/02/25 11:26:19;;;;;;;4.83;2.00;;;;;;;;;;751220;185;864706;-68
2024/02/25 11:28:45;;;;;;;4.23;1.70;;;;;;;;;;749361;184;820612;-70
2024/02/25 11:31:11;;;;;;;3.77;2.10;;;;;;;;;;747929;184;817415;-64
2024/02/25 11:33:39;;;;;;;4.87;2.00;;;;;;;;;;754270;184;805523;-64
2024/02/25 11:36:05;;;;;;;3.40;1.83;;;;;;;;;;752366;185;621118;-67
2024/02/25 11:38:31;;;;;;;4.13;1.83;;;;;;;;;;753208;184;620877;-69
2024/02/25 11:40:57;;;;;;;7.83;2.03;;;;;;;;;;750194;185;816626;-64
2024/02/25 11:43:24;;;;;;;3.65;1.40;;;;;;;;;;754426;185;999751;-63
2024/02/25 11:45:51;;;;;;;3.10;1.43;;;;;;;;;;754337;184;649638;-64
2024/02/25 11:48:17;;;;;;;5.25;2.10;;;;;;;;;;751693;182;979055;-64
2024/02/25 11:50:43;;;;;;;3.53;1.30;;;;;;;;;;755852;184;918470;-68
2024/02/25 11:53:09;;;;;;;6.43;1.30;;;;;;;;;;749887;184;1021928;-62
2024/02/25 11:55:35;;;;;;;2.57;1.10;;;;;;;;;;750604;185;767879;-64
2024/02/25 11:58:00;;;;;;;4.57;1.73;;;;;;;;;;760535;185;758082;-69
2024/02/25 12:00:26;;;;;;;4.17;1.80;;;;;;;;;;758586;185;622874;-64
2024/02/25 12:02:52;;;;;;;5.47;1.40;;;;;;;;;;751295;185;623422;-69
2024/02/25 12:05:18;;;;;;;8.47;2.50;;;;;;;;;;753946;184;712756;-63
2024/02/25 12:07:50;;;;;;;4.20;1.80;;;;;;;;;;756362;185;927595;-69
2024/02/25 12:10:15;;;;;;;2.90;1.60;;;;;;;;;;750759;184;787084;-64
2024/02/25 12:12:41;;;;;;;8.87;2.57;;;;;;;;;;752493;185;868642;-64
2024/02/25 12:15:07;;;;;;;7.73;1.90;;;;;;;;;;753750;184;819834;-63
2024/02/25 12:17:33;;;;;;;4.27;1.70;;;;;;;;;;749680;185;829764;-64
2024/02/25 12:20:00;;;;;;;4.57;1.70;;;;;;;;;;751518;184;662128;-64
2024/02/25 12:22:26;;;;;;;3.33;1.30;;;;;;;;;;752814;185;633218;-65
2024/02/25 12:24:53;;;;;;;4.30;1.63;;;;;;;;;;755622;185;614256;-64
2024/02/25 12:27:20;;;;;;;2.90;1.60;;;;;;;;;;749244;185;898428;-69
2024/02/25 12:29:45;;;;;;;4.63;1.63;;;;;;;;;;748698;184;912893;-69
2024/02/25 12:32:11;;;;;;;3.10;1.40;;;;;;;;;;750113;185;936645;-69
2024/02/25 12:34:37;;;;;;;3.93;1.53;;;;;;;;;;754061;184;713648;-69
2024/02/25 12:37:03;;;;;;;2.40;1.33;;;;;;;;;;748626;185;919181;-65
2024/02/25 12:39:28;;;;;;;3.03;1.40;;;;;;;;;;754094;185;816813;-63
2024/02/25 12:41:56;;;;;;;2.60;1.50;;;;;;;;;;750548;185;919282;-68
2024/02/25 12:44:21;;;;;;;3.17;1.50;;;;;;;;;;746514;185;1021404;-68
2024/02/25 12:46:47;;;;;;;3.40;1.60;;;;;;;;;;750617;185;816919;-68
2024/02/25 12:49:14;;;;;;;3.47;1.80;;;;;;;;;;755414;185;836582;-62
2024/02/25 12:51:38;;;;;;;2.93;1.83;;;;;;;;;;750279;185;915417;-68
2024/02/25 12:54:06;;;;;;;6.33;1.80;;;;;;;;;;751750;182;917687;-63
2024/02/25 12:56:30;;;;;;;4.33;1.47;;;;;;;;;;756293;185;616536;-68
2024/02/25 12:58:56;;;;;;;7.30;3.23;;;;;;;;;;754763;185;626959;-70
2024/02/25 13:01:22;;;;;;;4.60;2.00;;;;;;;;;;756225;184;625370;-63
2024/02/25 13:03:48;;;;;;;3.50;1.53;;;;;;;;;;755453;185;631043;-63
2024/02/25 13:06:14;;;;;;;3.23;1.47;;;;;;;;;;753787;183;638217;-69
2024/02/25 13:08:40;;;;;;;3.03;1.70;;;;;;;;;;752961;185;638058;-70
2024/02/25 13:11:06;;;;;;;3.20;1.43;;;;;;;;;;753189;183;623727;-68
2024/02/25 13:13:31;;;;;;;3.90;1.87;;;;;;;;;;757482;181;635172;-69
2024/02/25 13:15:58;;;;;;;3.80;1.37;;;;;;;;;;752438;185;707636;-63
2024/02/25 13:18:23;;;;;;;3.57;1.87;;;;;;;;;;749690;184;813991;-68
2024/02/25 13:20:49;;;;;;;4.00;1.70;;;;;;;;;;754490;185;813698;-70
2024/02/25 13:23:14;;;;;;;3.07;1.63;;;;;;;;;;755403;185;857245;-67
2024/02/25 13:25:41;;;;;;;4.23;1.57;;;;;;;;;;753858;185;719116;-64
2024/02/25 13:28:06;;;;;;;3.83;1.40;;;;;;;;;;758469;184;627274;-63
2024/02/25 13:30:32;;;;;;;4.70;1.30;;;;;;;;;;750341;184;766686;-63
2024/02/25 13:32:58;;;;;;;2.80;1.43;;;;;;;;;;747516;185;990930;-69
2024/02/25 13:35:24;;;;;;;2.60;1.20;;;;;;;;;;756181;185;631993;-67
2024/02/25 13:37:50;;;;;;;2.40;1.20;;;;;;;;;;753120;184;917565;-68
2024/02/25 13:40:15;;;;;;;3.57;1.27;;;;;;;;;;747752;185;920090;-68
2024/02/25 13:42:41;;;;;;;3.80;1.53;;;;;;;;;;751356;185;920949;-64
2024/02/25 13:45:09;;;;;;;7.43;1.80;;;;;;;;;;757824;184;883711;-65
2024/02/25 13:47:34;;;;;;;3.80;1.47;;;;;;;;;;748577;185;919606;-64
2024/02/25 13:49:59;;;;;;;3.72;1.20;;;;;;;;;;752453;185;749716;-68
2024/02/25 13:52:25;;;;;;;3.70;1.70;;;;;;;;;;752487;184;914111;-68
2024/02/25 13:54:51;;;;;;;2.33;0.97;;;;;;;;;;747710;185;865817;-70
2024/02/25 13:57:18;;;;;;;6.17;1.50;;;;;;;;;;748723;185;1024785;-63
2024/02/25 13:59:43;;;;;;;3.13;1.23;;;;;;;;;;755403;185;714955;-69
2024/02/25 14:02:08;;;;;;;3.43;1.57;;;;;;;;;;747282;185;918177;-63
2024/02/25 14:04:34;;;;;;;3.13;1.50;;;;;;;;;;747770;185;914390;-63
2024/02/25 14:07:00;;;;;;;3.60;1.30;;;;;;;;;;750796;184;834600;-63
2024/02/25 14:09:26;;;;;;;4.50;1.60;;;;;;;;;;761326;182;630968;-69
2024/02/25 14:11:52;;;;;;;6.53;1.83;;;;;;;;;;753992;185;900499;-69